sensor_id;sensor_type;location;lat;lon;timestamp;temperature;humidity
10411;DHT22;5251;52.112;8.606;2023-10-13T00:00:38;19.50;99.90
10411;DHT22;5251;52.112;8.606;2023-10-13T00:03:08;19.60;99.90
10411;DHT22;5251;52.112;8.606;2023-10-13T00:05:40;19.50;99.90
10411;DHT22;5251;52.112;8.606;2023-10-13T00:08:08;19.60;99.90
10411;DHT22;5251;52.112;8.606;2023-10-13T00:10:34;19.60;99.90
10411;DHT22;5251;52.112;8.606;2023-10-13T00:13:00;19.60;99.90
10411;DHT22;5251;52.112;8.606;2023-10-13T00:15:47;19.60;99.90
10411;DHT22;5251;52.112;8.606;2023-10-13T00:18:22;19.60;99.90
10411;DHT22;5251;52.112;8.606;2023-10-13T00:20:48;19.60;99.90
10411;DHT22;5251;52.112;8.606;2023-10-13T00:23:15;19.60;99.90
10411;DHT22;5251;52.112;8.606;2023-10-13T00:25:47;19.60;99.90
10411;DHT22;5251;52.112;8.606;2023-10-13T00:28:24;19.60;99.90
10411;DHT22;5251;52.112;8.606;2023-10-13T00:30:51;19.60;99.90
10411;DHT22;5251;52.112;8.606;2023-10-13T00:33:26;19.60;99.90
10411;DHT22;5251;52.112;8.606;2023-10-13T00:35:52;19.60;99.90
10411;DHT22;5251;52.112;8.606;2023-10-13T00:38:18;19.60;99.90
10411;DHT22;5251;52.112;8.606;2023-10-13T00:40:45;19.60;99.90
10411;DHT22;5251;52.112;8.606;2023-10-13T00:43:21;19.60;99.90
10411;DHT22;5251;52.112;8.606;2023-10-13T00:45:54;19.60;99.90
10411;DHT22;5251;52.112;8.606;2023-10-13T00:48:25;19.60;99.90
10411;DHT22;5251;52.112;8.606;2023-10-13T00:50:58;19.60;99.90
10411;DHT22;5251;52.112;8.606;2023-10-13T00:53:29;19.60;99.90
10411;DHT22;5251;52.112;8.606;2023-10-13T00:55:55;19.60;99.90
10411;DHT22;5251;52.112;8.606;2023-10-13T00:58:24;19.60;99.90
10411;DHT22;5251;52.112;8.606;2023-10-13T01:00:52;19.70;99.90
10411;DHT22;5251;52.112;8.606;2023-10-13T01:03:46;19.60;99.90
10411;DHT22;5251;52.112;8.606;2023-10-13T01:06:19;19.70;99.90
10411;DHT22;5251;52.112;8.606;2023-10-13T01:08:48;19.70;99.90
10411;DHT22;5251;52.112;8.606;2023-10-13T01:11:17;19.70;99.90
10411;DHT22;5251;52.112;8.606;2023-10-13T01:13:43;19.70;99.90
10411;DHT22;5251;52.112;8.606;2023-10-13T01:16:09;19.70;99.90
10411;DHT22;5251;52.112;8.606;2023-10-13T01:18:36;19.80;99.90
10411;DHT22;5251;52.112;8.606;2023-10-13T01:21:16;19.80;99.90
10411;DHT22;5251;52.112;8.606;2023-10-13T01:23:45;19.80;99.90
10411;DHT22;5251;52.112;8.606;2023-10-13T01:26:13;19.80;99.90
10411;DHT22;5251;52.112;8.606;2023-10-13T01:28:43;19.80;99.90
10411;DHT22;5251;52.112;8.606;2023-10-13T01:31:12;19.80;99.90
10411;DHT22;5251;52.112;8.606;2023-10-13T01:33:51;19.80;99.90
10411;DHT22;5251;52.112;8.606;2023-10-13T01:36:23;19.90;99.90
10411;DHT22;5251;52.112;8.606;2023-10-13T01:38:49;19.90;99.90
10411;DHT22;5251;52.112;8.606;2023-10-13T01:41:22;19.90;99.90
10411;DHT22;5251;52.112;8.606;2023-10-13T01:43:48;19.90;99.90
10411;DHT22;5251;52.112;8.606;2023-10-13T01:46:14;19.90;99.90
10411;DHT22;5251;52.112;8.606;2023-10-13T01:48:41;19.90;99.90
10411;DHT22;5251;52.112;8.606;2023-10-13T01:51:09;19.90;99.90
10411;DHT22;5251;52.112;8.606;2023-10-13T01:53:38;19.90;99.90
10411;DHT22;5251;52.112;8.606;2023-10-13T01:56:05;19.90;99.90
10411;DHT22;5251;52.112;8.606;2023-10-13T01:58:38;19.90;99.90
10411;DHT22;5251;52.112;8.606;2023-10-13T02:01:11;19.90;99.90
10411;DHT22;5251;52.112;8.606;2023-10-13T02:03:36;19.90;99.90
10411;DHT22;5251;52.112;8.606;2023-10-13T02:06:11;19.90;99.90
10411;DHT22;5251;52.112;8.606;2023-10-13T02:08:42;19.90;99.90
10411;DHT22;5251;52.112;8.606;2023-10-13T02:11:09;19.90;99.90
10411;DHT22;5251;52.112;8.606;2023-10-13T02:13:35;19.90;99.90
10411;DHT22;5251;52.112;8.606;2023-10-13T02:16:13;19.90;99.90
10411;DHT22;5251;52.112;8.606;2023-10-13T02:18:43;19.90;99.90
10411;DHT22;5251;52.112;8.606;2023-10-13T02:21:09;19.90;99.90
10411;DHT22;5251;52.112;8.606;2023-10-13T02:23:40;19.90;99.90
10411;DHT22;5251;52.112;8.606;2023-10-13T02:26:25;19.90;99.90
10411;DHT22;5251;52.112;8.606;2023-10-13T02:29:01;19.90;99.90
10411;DHT22;5251;52.112;8.606;2023-10-13T02:31:35;19.90;99.90
10411;DHT22;5251;52.112;8.606;2023-10-13T02:34:01;19.80;99.90
10411;DHT22;5251;52.112;8.606;2023-10-13T02:36:32;19.90;99.90
10411;DHT22;5251;52.112;8.606;2023-10-13T02:39:12;19.90;99.90
10411;DHT22;5251;52.112;8.606;2023-10-13T02:41:39;19.90;99.90
10411;DHT22;5251;52.112;8.606;2023-10-13T02:44:07;19.90;99.90
10411;DHT22;5251;52.112;8.606;2023-10-13T02:46:36;19.90;99.90
10411;DHT22;5251;52.112;8.606;2023-10-13T02:49:05;19.90;99.90
10411;DHT22;5251;52.112;8.606;2023-10-13T02:51:40;19.90;99.90
10411;DHT22;5251;52.112;8.606;2023-10-13T02:54:08;19.80;99.90
10411;DHT22;5251;52.112;8.606;2023-10-13T02:56:38;19.80;99.90
10411;DHT22;5251;52.112;8.606;2023-10-13T02:59:03;19.80;99.90
10411;DHT22;5251;52.112;8.606;2023-10-13T03:01:33;19.80;99.90
10411;DHT22;5251;52.112;8.606;2023-10-13T03:04:00;19.80;99.90
10411;DHT22;5251;52.112;8.606;2023-10-13T03:06:26;19.80;99.90
10411;DHT22;5251;52.112;8.606;2023-10-13T03:09:03;19.70;99.90
10411;DHT22;5251;52.112;8.606;2023-10-13T03:11:49;19.70;99.90
10411;DHT22;5251;52.112;8.606;2023-10-13T03:14:16;19.70;99.90
10411;DHT22;5251;52.112;8.606;2023-10-13T03:17:02;19.70;99.90
10411;DHT22;5251;52.112;8.606;2023-10-13T03:19:29;19.70;99.90
10411;DHT22;5251;52.112;8.606;2023-10-13T03:21:59;19.70;99.90
10411;DHT22;5251;52.112;8.606;2023-10-13T03:24:35;19.70;99.90
10411;DHT22;5251;52.112;8.606;2023-10-13T03:27:04;19.70;99.90
10411;DHT22;5251;52.112;8.606;2023-10-13T03:29:38;19.70;99.90
10411;DHT22;5251;52.112;8.606;2023-10-13T03:32:16;19.70;99.90
10411;DHT22;5251;52.112;8.606;2023-10-13T03:34:43;19.70;99.90
10411;DHT22;5251;52.112;8.606;2023-10-13T03:37:18;19.70;99.90
10411;DHT22;5251;52.112;8.606;2023-10-13T03:39:45;19.70;99.90
10411;DHT22;5251;52.112;8.606;2023-10-13T03:42:11;19.70;99.90
10411;DHT22;5251;52.112;8.606;2023-10-13T03:44:47;19.70;99.90
10411;DHT22;5251;52.112;8.606;2023-10-13T03:47:13;19.70;99.90
10411;DHT22;5251;52.112;8.606;2023-10-13T03:49:53;19.70;99.90
10411;DHT22;5251;52.112;8.606;2023-10-13T03:52:38;19.70;99.90
10411;DHT22;5251;52.112;8.606;2023-10-13T03:55:04;19.70;99.90
10411;DHT22;5251;52.112;8.606;2023-10-13T03:57:31;19.70;99.90
10411;DHT22;5251;52.112;8.606;2023-10-13T04:00:02;19.70;99.90
10411;DHT22;5251;52.112;8.606;2023-10-13T04:02:34;19.70;99.90
10411;DHT22;5251;52.112;8.606;2023-10-13T04:04:59;19.70;99.90
10411;DHT22;5251;52.112;8.606;2023-10-13T04:07:33;19.70;99.90
10411;DHT22;5251;52.112;8.606;2023-10-13T04:10:06;19.70;99.90
10411;DHT22;5251;52.112;8.606;2023-10-13T04:12:51;19.70;99.90
10411;DHT22;5251;52.112;8.606;2023-10-13T04:15:35;19.70;99.90
10411;DHT22;5251;52.112;8.606;2023-10-13T04:18:08;19.70;99.90
10411;DHT22;5251;52.112;8.606;2023-10-13T04:20:59;19.70;99.90
10411;DHT22;5251;52.112;8.606;2023-10-13T04:23:44;19.70;99.90
10411;DHT22;5251;52.112;8.606;2023-10-13T04:26:28;19.80;99.90
10411;DHT22;5251;52.112;8.606;2023-10-13T04:29:07;19.70;99.90
10411;DHT22;5251;52.112;8.606;2023-10-13T04:31:56;19.70;99.90
10411;DHT22;5251;52.112;8.606;2023-10-13T04:34:25;19.80;99.90
10411;DHT22;5251;52.112;8.606;2023-10-13T04:36:59;19.80;99.90
10411;DHT22;5251;52.112;8.606;2023-10-13T04:39:45;19.80;99.90
10411;DHT22;5251;52.112;8.606;2023-10-13T04:42:10;19.80;99.90
10411;DHT22;5251;52.112;8.606;2023-10-13T04:44:51;19.70;99.90
10411;DHT22;5251;52.112;8.606;2023-10-13T04:47:21;19.80;99.90
10411;DHT22;5251;52.112;8.606;2023-10-13T04:49:47;19.80;99.90
10411;DHT22;5251;52.112;8.606;2023-10-13T04:52:13;19.80;99.90
10411;DHT22;5251;52.112;8.606;2023-10-13T04:54:52;19.80;99.90
10411;DHT22;5251;52.112;8.606;2023-10-13T04:57:25;19.80;99.90
10411;DHT22;5251;52.112;8.606;2023-10-13T05:00:04;19.80;99.90
10411;DHT22;5251;52.112;8.606;2023-10-13T05:02:38;19.80;99.90
10411;DHT22;5251;52.112;8.606;2023-10-13T05:05:13;19.80;99.90
10411;DHT22;5251;52.112;8.606;2023-10-13T05:07:39;19.80;99.90
10411;DHT22;5251;52.112;8.606;2023-10-13T05:10:23;19.80;99.90
10411;DHT22;5251;52.112;8.606;2023-10-13T05:13:07;19.90;99.90
10411;DHT22;5251;52.112;8.606;2023-10-13T05:15:51;19.80;99.90
10411;DHT22;5251;52.112;8.606;2023-10-13T05:18:36;19.90;99.90
10411;DHT22;5251;52.112;8.606;2023-10-13T05:21:20;19.80;99.90
10411;DHT22;5251;52.112;8.606;2023-10-13T05:24:05;19.90;99.90
10411;DHT22;5251;52.112;8.606;2023-10-13T05:26:49;19.90;99.90
10411;DHT22;5251;52.112;8.606;2023-10-13T05:29:33;19.80;99.90
10411;DHT22;5251;52.112;8.606;2023-10-13T05:32:18;19.90;99.90
10411;DHT22;5251;52.112;8.606;2023-10-13T05:35:02;19.90;99.90
10411;DHT22;5251;52.112;8.606;2023-10-13T05:37:46;19.90;99.90
10411;DHT22;5251;52.112;8.606;2023-10-13T05:40:30;19.90;99.90
10411;DHT22;5251;52.112;8.606;2023-10-13T05:43:14;19.90;99.90
10411;DHT22;5251;52.112;8.606;2023-10-13T05:46:03;19.90;99.90
10411;DHT22;5251;52.112;8.606;2023-10-13T05:48:47;19.90;99.90
10411;DHT22;5251;52.112;8.606;2023-10-13T05:54:10;19.80;99.90
10411;DHT22;5251;52.112;8.606;2023-10-13T05:56:46;19.80;99.90
10411;DHT22;5251;52.112;8.606;2023-10-13T05:59:32;19.80;99.90
10411;DHT22;5251;52.112;8.606;2023-10-13T06:02:20;19.80;99.90
10411;DHT22;5251;52.112;8.606;2023-10-13T06:05:06;19.80;99.90
10411;DHT22;5251;52.112;8.606;2023-10-13T06:07:50;19.90;99.90
10411;DHT22;5251;52.112;8.606;2023-10-13T06:10:34;19.90;99.90
10411;DHT22;5251;52.112;8.606;2023-10-13T06:13:19;19.90;99.90
10411;DHT22;5251;52.112;8.606;2023-10-13T06:16:15;19.90;99.90
10411;DHT22;5251;52.112;8.606;2023-10-13T06:19:00;19.90;99.90
10411;DHT22;5251;52.112;8.606;2023-10-13T06:21:45;19.90;99.90
10411;DHT22;5251;52.112;8.606;2023-10-13T06:24:30;19.90;99.90
10411;DHT22;5251;52.112;8.606;2023-10-13T06:27:15;20.00;99.90
10411;DHT22;5251;52.112;8.606;2023-10-13T06:29:59;20.00;99.90
10411;DHT22;5251;52.112;8.606;2023-10-13T06:32:26;20.00;99.90
10411;DHT22;5251;52.112;8.606;2023-10-13T06:34:53;19.90;99.90
10411;DHT22;5251;52.112;8.606;2023-10-13T06:37:26;20.00;99.90
10411;DHT22;5251;52.112;8.606;2023-10-13T06:39:57;20.00;99.90
10411;DHT22;5251;52.112;8.606;2023-10-13T06:42:32;20.00;99.90
10411;DHT22;5251;52.112;8.606;2023-10-13T06:45:01;20.00;99.90
10411;DHT22;5251;52.112;8.606;2023-10-13T06:47:37;20.10;99.90
10411;DHT22;5251;52.112;8.606;2023-10-13T06:50:09;20.10;99.90
10411;DHT22;5251;52.112;8.606;2023-10-13T06:52:45;20.10;99.90
10411;DHT22;5251;52.112;8.606;2023-10-13T06:55:11;20.10;99.90
10411;DHT22;5251;52.112;8.606;2023-10-13T06:57:48;20.10;99.90
10411;DHT22;5251;52.112;8.606;2023-10-13T07:00:15;20.20;99.90
10411;DHT22;5251;52.112;8.606;2023-10-13T07:03:04;20.20;99.90
10411;DHT22;5251;52.112;8.606;2023-10-13T07:05:39;20.20;99.90
10411;DHT22;5251;52.112;8.606;2023-10-13T07:08:07;20.20;99.90
10411;DHT22;5251;52.112;8.606;2023-10-13T07:10:33;20.20;99.90
10411;DHT22;5251;52.112;8.606;2023-10-13T07:13:13;20.30;99.90
10411;DHT22;5251;52.112;8.606;2023-10-13T07:15:40;20.30;99.90
10411;DHT22;5251;52.112;8.606;2023-10-13T07:18:15;20.30;99.90
10411;DHT22;5251;52.112;8.606;2023-10-13T07:20:43;20.30;99.90
10411;DHT22;5251;52.112;8.606;2023-10-13T07:23:13;20.30;99.90
10411;DHT22;5251;52.112;8.606;2023-10-13T07:25:53;20.30;99.90
10411;DHT22;5251;52.112;8.606;2023-10-13T07:28:20;20.30;99.90
10411;DHT22;5251;52.112;8.606;2023-10-13T07:30:46;20.30;99.90
10411;DHT22;5251;52.112;8.606;2023-10-13T07:33:34;20.30;99.90
10411;DHT22;5251;52.112;8.606;2023-10-13T07:36:04;20.40;99.90
10411;DHT22;5251;52.112;8.606;2023-10-13T07:38:45;20.40;99.90
10411;DHT22;5251;52.112;8.606;2023-10-13T07:41:31;20.50;99.90
10411;DHT22;5251;52.112;8.606;2023-10-13T07:43:58;20.40;99.90
10411;DHT22;5251;52.112;8.606;2023-10-13T07:46:25;20.50;99.90
10411;DHT22;5251;52.112;8.606;2023-10-13T07:48:56;20.50;99.90
10411;DHT22;5251;52.112;8.606;2023-10-13T07:51:34;20.50;99.90
10411;DHT22;5251;52.112;8.606;2023-10-13T07:54:06;20.60;99.90
10411;DHT22;5251;52.112;8.606;2023-10-13T07:56:36;20.60;99.90
10411;DHT22;5251;52.112;8.606;2023-10-13T07:59:05;20.60;99.90
10411;DHT22;5251;52.112;8.606;2023-10-13T08:01:33;20.60;99.90
10411;DHT22;5251;52.112;8.606;2023-10-13T08:03:59;20.70;99.90
10411;DHT22;5251;52.112;8.606;2023-10-13T08:06:37;20.70;99.90
10411;DHT22;5251;52.112;8.606;2023-10-13T08:09:03;20.70;99.90
10411;DHT22;5251;52.112;8.606;2023-10-13T08:11:36;20.70;99.90
10411;DHT22;5251;52.112;8.606;2023-10-13T08:14:03;20.80;99.90
10411;DHT22;5251;52.112;8.606;2023-10-13T08:16:41;20.80;99.90
10411;DHT22;5251;52.112;8.606;2023-10-13T08:19:27;20.80;99.90
10411;DHT22;5251;52.112;8.606;2023-10-13T08:21:57;20.80;99.90
10411;DHT22;5251;52.112;8.606;2023-10-13T08:24:27;20.80;99.90
10411;DHT22;5251;52.112;8.606;2023-10-13T08:27:13;20.90;99.90
10411;DHT22;5251;52.112;8.606;2023-10-13T08:29:40;20.90;99.90
10411;DHT22;5251;52.112;8.606;2023-10-13T08:32:24;20.90;99.90
10411;DHT22;5251;52.112;8.606;2023-10-13T08:35:02;21.00;99.90
10411;DHT22;5251;52.112;8.606;2023-10-13T08:37:30;21.10;99.90
10411;DHT22;5251;52.112;8.606;2023-10-13T08:39:59;21.10;99.90
10411;DHT22;5251;52.112;8.606;2023-10-13T08:42:31;21.10;99.90
10411;DHT22;5251;52.112;8.606;2023-10-13T08:45:13;21.20;99.90
10411;DHT22;5251;52.112;8.606;2023-10-13T08:47:52;21.30;99.90
10411;DHT22;5251;52.112;8.606;2023-10-13T08:50:52;21.30;99.90
10411;DHT22;5251;52.112;8.606;2023-10-13T08:53:31;21.50;99.90
10411;DHT22;5251;52.112;8.606;2023-10-13T08:58:43;21.60;99.90
10411;DHT22;5251;52.112;8.606;2023-10-13T09:01:37;21.70;99.90
10411;DHT22;5251;52.112;8.606;2023-10-13T09:04:07;21.80;99.90
10411;DHT22;5251;52.112;8.606;2023-10-13T09:12:19;22.20;99.90
10411;DHT22;5251;52.112;8.606;2023-10-13T09:14:53;22.30;99.90
10411;DHT22;5251;52.112;8.606;2023-10-13T09:17:30;22.40;99.90
10411;DHT22;5251;52.112;8.606;2023-10-13T09:20:04;22.60;99.90
10411;DHT22;5251;52.112;8.606;2023-10-13T09:22:51;22.60;99.90
10411;DHT22;5251;52.112;8.606;2023-10-13T09:25:39;22.80;99.90
10411;DHT22;5251;52.112;8.606;2023-10-13T09:28:19;22.80;99.90
10411;DHT22;5251;52.112;8.606;2023-10-13T09:30:49;22.90;99.90
10411;DHT22;5251;52.112;8.606;2023-10-13T09:33:20;23.00;99.90
10411;DHT22;5251;52.112;8.606;2023-10-13T09:35:54;23.10;99.90
10411;DHT22;5251;52.112;8.606;2023-10-13T09:38:20;23.20;99.90
10411;DHT22;5251;52.112;8.606;2023-10-13T09:40:46;23.20;99.90
10411;DHT22;5251;52.112;8.606;2023-10-13T09:43:17;23.30;99.90
10411;DHT22;5251;52.112;8.606;2023-10-13T09:45:46;23.40;99.90
10411;DHT22;5251;52.112;8.606;2023-10-13T09:48:46;23.60;99.90
10411;DHT22;5251;52.112;8.606;2023-10-13T09:51:18;23.60;99.90
10411;DHT22;5251;52.112;8.606;2023-10-13T09:54:08;23.80;99.90
10411;DHT22;5251;52.112;8.606;2023-10-13T09:56:57;23.90;99.90
10411;DHT22;5251;52.112;8.606;2023-10-13T09:59:37;23.90;99.90
10411;DHT22;5251;52.112;8.606;2023-10-13T10:02:08;24.00;99.90
10411;DHT22;5251;52.112;8.606;2023-10-13T10:04:35;24.10;99.90
10411;DHT22;5251;52.112;8.606;2023-10-13T10:07:26;24.10;99.90
10411;DHT22;5251;52.112;8.606;2023-10-13T10:09:59;24.20;99.90
10411;DHT22;5251;52.112;8.606;2023-10-13T10:12:45;24.20;99.90
10411;DHT22;5251;52.112;8.606;2023-10-13T10:18:01;24.30;99.90
10411;DHT22;5251;52.112;8.606;2023-10-13T10:20:36;24.30;99.90
10411;DHT22;5251;52.112;8.606;2023-10-13T10:23:10;24.40;99.90
10411;DHT22;5251;52.112;8.606;2023-10-13T10:25:48;24.40;99.90
10411;DHT22;5251;52.112;8.606;2023-10-13T10:28:17;24.40;99.90
10411;DHT22;5251;52.112;8.606;2023-10-13T10:30:45;24.50;99.90
10411;DHT22;5251;52.112;8.606;2023-10-13T10:33:11;24.60;99.90
10411;DHT22;5251;52.112;8.606;2023-10-13T10:35:42;24.60;99.90
10411;DHT22;5251;52.112;8.606;2023-10-13T10:40:53;24.70;99.90
10411;DHT22;5251;52.112;8.606;2023-10-13T10:43:30;24.80;99.90
10411;DHT22;5251;52.112;8.606;2023-10-13T10:46:34;24.80;99.90
10411;DHT22;5251;52.112;8.606;2023-10-13T10:49:07;24.90;99.90
10411;DHT22;5251;52.112;8.606;2023-10-13T10:51:37;24.90;99.90
10411;DHT22;5251;52.112;8.606;2023-10-13T10:54:18;25.00;99.90
10411;DHT22;5251;52.112;8.606;2023-10-13T10:56:44;25.00;99.90
10411;DHT22;5251;52.112;8.606;2023-10-13T10:59:18;25.10;99.90
10411;DHT22;5251;52.112;8.606;2023-10-13T11:01:45;25.20;99.90
10411;DHT22;5251;52.112;8.606;2023-10-13T11:04:17;25.20;99.90
10411;DHT22;5251;52.112;8.606;2023-10-13T11:06:56;25.20;99.90
10411;DHT22;5251;52.112;8.606;2023-10-13T11:09:31;25.20;99.90
10411;DHT22;5251;52.112;8.606;2023-10-13T11:12:09;25.20;99.90
10411;DHT22;5251;52.112;8.606;2023-10-13T11:14:45;25.20;99.90
10411;DHT22;5251;52.112;8.606;2023-10-13T11:17:19;25.20;99.90
10411;DHT22;5251;52.112;8.606;2023-10-13T11:20:24;25.20;99.90
10411;DHT22;5251;52.112;8.606;2023-10-13T11:23:00;25.20;99.90
10411;DHT22;5251;52.112;8.606;2023-10-13T11:25:30;25.30;99.90
10411;DHT22;5251;52.112;8.606;2023-10-13T11:28:12;25.30;99.90
10411;DHT22;5251;52.112;8.606;2023-10-13T11:30:46;25.30;99.90
10411;DHT22;5251;52.112;8.606;2023-10-13T11:33:16;25.30;99.90
10411;DHT22;5251;52.112;8.606;2023-10-13T11:35:55;25.40;99.90
10411;DHT22;5251;52.112;8.606;2023-10-13T11:38:33;25.40;99.90
10411;DHT22;5251;52.112;8.606;2023-10-13T11:41:14;25.40;99.90
10411;DHT22;5251;52.112;8.606;2023-10-13T11:43:43;25.40;99.90
10411;DHT22;5251;52.112;8.606;2023-10-13T11:46:12;25.40;99.90
10411;DHT22;5251;52.112;8.606;2023-10-13T11:48:41;25.50;99.90
10411;DHT22;5251;52.112;8.606;2023-10-13T11:51:12;25.50;99.90
10411;DHT22;5251;52.112;8.606;2023-10-13T11:53:50;25.60;99.90
10411;DHT22;5251;52.112;8.606;2023-10-13T11:56:19;25.60;99.90
10411;DHT22;5251;52.112;8.606;2023-10-13T11:58:48;25.70;99.90
10411;DHT22;5251;52.112;8.606;2023-10-13T12:01:14;25.80;99.90
10411;DHT22;5251;52.112;8.606;2023-10-13T12:03:40;25.90;99.90
10411;DHT22;5251;52.112;8.606;2023-10-13T12:06:24;26.00;99.90
10411;DHT22;5251;52.112;8.606;2023-10-13T12:09:06;26.10;99.90
10411;DHT22;5251;52.112;8.606;2023-10-13T12:11:44;26.10;99.60
10411;DHT22;5251;52.112;8.606;2023-10-13T12:14:14;26.30;99.50
10411;DHT22;5251;52.112;8.606;2023-10-13T12:16:48;26.30;99.90
10411;DHT22;5251;52.112;8.606;2023-10-13T12:19:25;26.40;99.60
10411;DHT22;5251;52.112;8.606;2023-10-13T12:21:56;26.50;99.70
10411;DHT22;5251;52.112;8.606;2023-10-13T12:24:23;26.60;99.40
10411;DHT22;5251;52.112;8.606;2023-10-13T12:27:00;26.70;99.40
10411;DHT22;5251;52.112;8.606;2023-10-13T12:29:26;26.70;99.70
10411;DHT22;5251;52.112;8.606;2023-10-13T12:31:58;26.80;99.30
10411;DHT22;5251;52.112;8.606;2023-10-13T12:34:40;26.80;99.00
10411;DHT22;5251;52.112;8.606;2023-10-13T12:37:22;26.80;98.60
10411;DHT22;5251;52.112;8.606;2023-10-13T12:40:13;26.90;98.10
10411;DHT22;5251;52.112;8.606;2023-10-13T12:42:58;26.90;98.10
10411;DHT22;5251;52.112;8.606;2023-10-13T12:45:43;27.00;97.70
10411;DHT22;5251;52.112;8.606;2023-10-13T12:48:28;27.10;98.00
10411;DHT22;5251;52.112;8.606;2023-10-13T12:51:12;27.10;97.70
10411;DHT22;5251;52.112;8.606;2023-10-13T12:53:51;27.20;97.70
10411;DHT22;5251;52.112;8.606;2023-10-13T12:56:18;27.30;97.60
10411;DHT22;5251;52.112;8.606;2023-10-13T12:58:54;27.40;97.50
10411;DHT22;5251;52.112;8.606;2023-10-13T13:01:24;27.40;97.00
10411;DHT22;5251;52.112;8.606;2023-10-13T13:03:52;27.40;97.00
10411;DHT22;5251;52.112;8.606;2023-10-13T13:06:22;27.50;96.70
10411;DHT22;5251;52.112;8.606;2023-10-13T13:08:58;27.50;96.50
10411;DHT22;5251;52.112;8.606;2023-10-13T13:11:24;27.50;95.90
10411;DHT22;5251;52.112;8.606;2023-10-13T13:13:50;27.50;96.10
10411;DHT22;5251;52.112;8.606;2023-10-13T13:16:18;27.50;96.10
10411;DHT22;5251;52.112;8.606;2023-10-13T13:18:45;27.50;94.60
10411;DHT22;5251;52.112;8.606;2023-10-13T13:21:10;27.50;94.70
10411;DHT22;5251;52.112;8.606;2023-10-13T13:23:38;27.40;95.20
10411;DHT22;5251;52.112;8.606;2023-10-13T13:26:06;27.40;95.50
10411;DHT22;5251;52.112;8.606;2023-10-13T13:28:42;27.50;94.70
10411;DHT22;5251;52.112;8.606;2023-10-13T13:31:08;27.50;94.80
10411;DHT22;5251;52.112;8.606;2023-10-13T13:33:34;27.50;94.30
10411;DHT22;5251;52.112;8.606;2023-10-13T13:36:05;27.50;93.50
10411;DHT22;5251;52.112;8.606;2023-10-13T13:38:30;27.60;94.00
10411;DHT22;5251;52.112;8.606;2023-10-13T13:40:58;27.50;94.10
10411;DHT22;5251;52.112;8.606;2023-10-13T13:43:24;27.50;93.40
10411;DHT22;5251;52.112;8.606;2023-10-13T13:46:23;27.50;93.30
10411;DHT22;5251;52.112;8.606;2023-10-13T13:48:58;27.50;93.60
10411;DHT22;5251;52.112;8.606;2023-10-13T13:51:28;27.40;93.20
10411;DHT22;5251;52.112;8.606;2023-10-13T13:53:57;27.40;93.50
10411;DHT22;5251;52.112;8.606;2023-10-13T13:56:24;27.30;92.90
10411;DHT22;5251;52.112;8.606;2023-10-13T13:58:54;27.20;93.60
10411;DHT22;5251;52.112;8.606;2023-10-13T14:01:21;27.10;93.30
10411;DHT22;5251;52.112;8.606;2023-10-13T14:03:50;27.10;93.20
10411;DHT22;5251;52.112;8.606;2023-10-13T14:06:18;27.00;93.70
10411;DHT22;5251;52.112;8.606;2023-10-13T14:08:46;27.00;93.20
10411;DHT22;5251;52.112;8.606;2023-10-13T14:11:17;26.90;93.00
10411;DHT22;5251;52.112;8.606;2023-10-13T14:14:02;26.80;92.70
10411;DHT22;5251;52.112;8.606;2023-10-13T14:16:30;26.70;92.80
10411;DHT22;5251;52.112;8.606;2023-10-13T14:18:59;26.60;92.50
10411;DHT22;5251;52.112;8.606;2023-10-13T14:21:27;26.50;92.70
10411;DHT22;5251;52.112;8.606;2023-10-13T14:23:53;26.40;92.60
10411;DHT22;5251;52.112;8.606;2023-10-13T14:26:20;26.20;92.30
10411;DHT22;5251;52.112;8.606;2023-10-13T14:28:51;26.20;92.50
10411;DHT22;5251;52.112;8.606;2023-10-13T14:31:30;26.00;92.70
10411;DHT22;5251;52.112;8.606;2023-10-13T14:33:56;26.00;92.30
10411;DHT22;5251;52.112;8.606;2023-10-13T14:36:22;25.80;92.30
10411;DHT22;5251;52.112;8.606;2023-10-13T14:38:49;25.80;92.50
10411;DHT22;5251;52.112;8.606;2023-10-13T14:41:18;25.70;92.60
10411;DHT22;5251;52.112;8.606;2023-10-13T14:43:44;25.60;92.40
10411;DHT22;5251;52.112;8.606;2023-10-13T14:46:16;25.60;92.60
10411;DHT22;5251;52.112;8.606;2023-10-13T14:48:45;25.50;92.80
10411;DHT22;5251;52.112;8.606;2023-10-13T14:51:14;25.40;92.40
10411;DHT22;5251;52.112;8.606;2023-10-13T14:53:42;25.40;92.20
10411;DHT22;5251;52.112;8.606;2023-10-13T14:56:15;25.40;92.60
10411;DHT22;5251;52.112;8.606;2023-10-13T14:58:42;25.30;92.10
10411;DHT22;5251;52.112;8.606;2023-10-13T15:01:15;25.30;92.60
10411;DHT22;5251;52.112;8.606;2023-10-13T15:03:45;25.30;92.70
10411;DHT22;5251;52.112;8.606;2023-10-13T15:06:20;25.30;92.20
10411;DHT22;5251;52.112;8.606;2023-10-13T15:08:47;25.30;92.30
10411;DHT22;5251;52.112;8.606;2023-10-13T15:11:14;25.30;92.20
10411;DHT22;5251;52.112;8.606;2023-10-13T15:13:42;25.30;92.20
10411;DHT22;5251;52.112;8.606;2023-10-13T15:16:18;25.30;92.00
10411;DHT22;5251;52.112;8.606;2023-10-13T15:18:48;25.30;92.60
10411;DHT22;5251;52.112;8.606;2023-10-13T15:21:20;25.30;91.80
10411;DHT22;5251;52.112;8.606;2023-10-13T15:23:48;25.30;92.00
10411;DHT22;5251;52.112;8.606;2023-10-13T15:26:14;25.30;92.20
10411;DHT22;5251;52.112;8.606;2023-10-13T15:28:41;25.20;91.60
10411;DHT22;5251;52.112;8.606;2023-10-13T15:31:15;25.20;91.70
10411;DHT22;5251;52.112;8.606;2023-10-13T15:33:58;25.20;92.40
10411;DHT22;5251;52.112;8.606;2023-10-13T15:36:24;25.20;92.10
10411;DHT22;5251;52.112;8.606;2023-10-13T15:38:51;25.20;92.10
10411;DHT22;5251;52.112;8.606;2023-10-13T15:41:24;25.20;91.60
10411;DHT22;5251;52.112;8.606;2023-10-13T15:43:50;25.10;91.80
10411;DHT22;5251;52.112;8.606;2023-10-13T15:46:18;25.10;91.90
10411;DHT22;5251;52.112;8.606;2023-10-13T15:48:43;25.10;91.60
10411;DHT22;5251;52.112;8.606;2023-10-13T15:51:11;25.00;91.70
10411;DHT22;5251;52.112;8.606;2023-10-13T15:53:40;25.00;92.00
10411;DHT22;5251;52.112;8.606;2023-10-13T15:56:06;24.90;91.60
10411;DHT22;5251;52.112;8.606;2023-10-13T15:58:38;24.90;91.90
10411;DHT22;5251;52.112;8.606;2023-10-13T16:01:05;24.90;92.10
10411;DHT22;5251;52.112;8.606;2023-10-13T16:03:33;24.90;92.00
10411;DHT22;5251;52.112;8.606;2023-10-13T16:06:02;24.80;91.70
10411;DHT22;5251;52.112;8.606;2023-10-13T16:08:30;24.80;92.00
10411;DHT22;5251;52.112;8.606;2023-10-13T16:11:06;24.80;91.70
10411;DHT22;5251;52.112;8.606;2023-10-13T16:13:34;24.70;91.90
10411;DHT22;5251;52.112;8.606;2023-10-13T16:16:02;24.70;92.00
10411;DHT22;5251;52.112;8.606;2023-10-13T16:18:27;24.70;91.90
10411;DHT22;5251;52.112;8.606;2023-10-13T16:21:01;24.60;92.20
10411;DHT22;5251;52.112;8.606;2023-10-13T16:23:31;24.60;92.00
10411;DHT22;5251;52.112;8.606;2023-10-13T16:25:57;24.50;92.10
10411;DHT22;5251;52.112;8.606;2023-10-13T16:28:28;24.50;92.30
10411;DHT22;5251;52.112;8.606;2023-10-13T16:30:54;24.40;92.20
10411;DHT22;5251;52.112;8.606;2023-10-13T16:33:22;24.40;92.20
10411;DHT22;5251;52.112;8.606;2023-10-13T16:35:48;24.40;92.40
10411;DHT22;5251;52.112;8.606;2023-10-13T16:38:15;24.40;92.40
10411;DHT22;5251;52.112;8.606;2023-10-13T16:40:41;24.40;92.20